Flight Track Log - Related Links

Times and Time Zones

All times are in EDT time to prevent confusion due to time zone crossing. See the N319EE flight status page for this flight to view local times or setup timezone preferences in your user account.

Time Position Orientation Groundspeed Altitude Reporting Facility
EDT Latitude Longitude Course Direction KTS MPH feet Rate Location/Type
Tue 06:22:47 PM 44.2869 -69.9672 245° Southwest 179 206 6,500  Level Boston Center
Tue 06:23:48 PM 44.2633 -70.0317 243° Southwest 176 203 8,700 2,213 Climbing Boston Center
Tue 06:24:49 PM 44.2406 -70.0908 242° Southwest 176 203 11,000 2,115 Climbing Boston Center
Tue 06:25:50 PM 44.2192 -70.1508 244° Southwest 175 201 13,000 1,934 Climbing Boston Center
Tue 06:26:50 PM 44.1944 -70.2164 242° Southwest 175 201 14,900 1,680 Climbing Boston Center
Tue 06:27:55 PM 44.1708 -70.2764 241° Southwest 177 204 16,500 1,344 Climbing Boston Center
Tue 06:28:55 PM 44.1483 -70.3378 243° Southwest 177 204 17,700 1,180 Climbing Boston Center
Tue 06:29:57 PM 44.1231 -70.4053 242° Southwest 183 211 18,900 1,131 Climbing Boston Center
Tue 06:30:57 PM 44.1000 -70.4656 242° Southwest 183 211 20,000 545 Climbing Boston Center
Tue 06:31:58 PM 44.0722 -70.5375 242° Southwest 204 235 20,000  Level Boston Center
Tue 06:33:02 PM 44.0422 -70.6183 243° Southwest 228 262 20,000  Level Boston Center
Tue 06:34:02 PM 44.0108 -70.6989 242° Southwest 231 266 20,000  Level Boston Center
Tue 06:35:03 PM 43.9786 -70.7806 241° Southwest 236 272 20,000  Level Boston Center
Tue 06:36:05 PM 43.9469 -70.8611 241° Southwest 236 272 20,000  Level Boston Center
Tue 06:37:08 PM 43.9156 -70.9436 242° Southwest 237 273 20,000  Level Boston Center
Tue 06:38:09 PM 43.8769 -71.0425 242° Southwest 239 275 20,000  Level Boston Center
Tue 06:39:11 PM 43.8450 -71.1242 242° Southwest 240 276 20,000  Level Boston Center
Tue 06:40:11 PM 43.8114 -71.2083 241° Southwest 242 278 20,000  Level Boston Center
Tue 06:41:12 PM 43.7789 -71.2919 242° Southwest 244 281 20,000  Level Boston Center
Tue 06:42:15 PM 43.7469 -71.3761 242° Southwest 244 281 20,000  Level Boston Center
Tue 06:43:17 PM 43.7128 -71.4594 240° Southwest 244 281 20,000  Level Boston Center
Tue 06:44:17 PM 43.6814 -71.5408 242° Southwest 245 282 20,000  Level Boston Center
Tue 06:45:21 PM 43.6469 -71.6239 240° Southwest 249 287 20,000  Level Boston Center
Tue 06:46:21 PM 43.6133 -71.7069 241° Southwest 248 285 20,000  Level Boston Center
Tue 06:47:22 PM 43.5728 -71.8056 240° Southwest 248 285 20,000  Level Boston Center
Tue 06:48:23 PM 43.5406 -71.8900 242° Southwest 249 287 20,000  Level Boston Center
Tue 06:49:26 PM 43.5081 -71.9747 242° Southwest 249 287 20,000  Level Boston Center
Tue 06:50:26 PM 43.4733 -72.0567 240° Southwest 249 287 20,000  Level Boston Center
Tue 06:51:27 PM 43.4408 -72.1414 242° Southwest 249 287 20,000  Level Boston Center
Tue 06:52:31 PM 43.4058 -72.2244 240° Southwest 249 287 20,000  Level Boston Center
Tue 06:53:32 PM 43.3714 -72.3094 241° Southwest 251 289 20,000  Level Boston Center
Tue 06:54:32 PM 43.3314 -72.4106 241° Southwest 252 290 20,000  Level Boston Center
Tue 06:55:33 PM 43.2972 -72.4936 241° Southwest 251 289 20,000  Level Boston Center
Tue 06:56:37 PM 43.2631 -72.5761 240° Southwest 251 289 20,000  Level Boston Center
Tue 06:57:38 PM 43.2286 -72.6597 241° Southwest 251 289 20,000  Level Boston Center
Tue 06:58:38 PM 43.1936 -72.7439 240° Southwest 252 290 20,000  Level Boston Center
Tue 06:59:39 PM 43.1586 -72.8283 240° Southwest 253 291 20,000  Level Boston Center
Tue 07:00:43 PM 43.1197 -72.9225 241° Southwest 253 291 20,000  Level Boston Center
Tue 07:01:44 PM 43.0850 -73.0061 240° Southwest 254 292 20,000  Level Boston Center
Tue 07:02:44 PM 43.0500 -73.0986 243° Southwest 254 292 20,000  Level Boston Center
Tue 07:03:48 PM 43.0253 -73.1883 249° West 254 292 20,000  Level Boston Center
Tue 07:04:49 PM 43.0006 -73.2794 250° West 254 292 20,000  Level Boston Center
Tue 07:05:50 PM 42.9750 -73.3731 250° West 256 295 20,000  Level Boston Center
Tue 07:06:50 PM 42.9500 -73.4631 249° West 256 295 20,000  Level Boston Center
Tue 07:07:51 PM 42.9244 -73.5531 249° West 255 293 20,000  Level Boston Center
Tue 07:08:55 PM 42.8983 -73.6436 249° West 255 293 20,000  Level Boston Center
Tue 07:09:56 PM 42.8728 -73.7339 249° West 255 293 20,000  Level Boston Center
Tue 07:10:57 PM 42.8436 -73.8386 249° West 256 295 20,000  Level Boston Center
Tue 07:12:00 PM 42.8178 -73.9286 249° West 256 295 20,000 -244 Level Boston Center
Tue 07:13:00 PM 42.7919 -74.0197 249° West 256 295 19,500 -744 Descending Boston Center
Tue 07:14:01 PM 42.7589 -74.1358 249° West 282 325 18,500 -912 Descending Boston Center
Tue 07:15:05 PM 42.7294 -74.2378 249° West 287 330 17,600 -919 Descending Boston Center
Tue 07:16:05 PM 42.6992 -74.3389 248° West 289 333 16,600 -787 Descending Boston Center
Tue 07:17:07 PM 42.6633 -74.4483 246° West 293 337 16,000 -290 Descending Boston Center
Tue 07:18:09 PM 42.6333 -74.5436 247° West 280 322 16,000  Level Boston Center
Tue 07:19:09 PM 42.6033 -74.6381 247° West 277 319 16,000  Level Boston Center
Tue 07:20:13 PM 42.5714 -74.7381 247° West 272 313 16,000  Level Boston Center
Tue 07:21:13 PM 42.5431 -74.8314 248° West 272 313 16,000  Level Boston Center
Tue 07:22:15 PM 42.5128 -74.9256 246° West 272 313 16,000 -49 Level Boston Center
Tue 07:23:16 PM 42.4819 -75.0211 246° West 272 313 15,900 -738 Descending Boston Center
Tue 07:24:17 PM 42.4506 -75.1200 247° West 282 325 14,500 -1,344 Descending Boston Center
Tue 07:25:21 PM 42.4197 -75.2194 247° West 284 327 13,100 -1,355 Descending Boston Center
Tue 07:26:21 PM 42.3892 -75.3158 247° West 284 327 11,700 -1,537 Descending Boston Center
Tue 07:27:22 PM 42.3575 -75.4108 246° West 282 325 10,000 -1,623 Descending Boston Center
Tue 07:28:23 PM 42.3261 -75.5086 247° West 282 325 8,400 -1,645 Descending Boston Center
Tue 07:29:26 PM 42.2906 -75.6142 246° West 273 314 6,600 -1,680 Descending Boston Center
Tue 07:30:28 PM 42.2606 -75.7125 248° West 276 318 4,900 -1,623 Descending Boston Center
Tue 07:31:28 PM 42.2339 -75.8081 249° West 277 319 3,300 -976 Descending Boston Center
Tue 07:32:31 PM 42.2108 -75.8781 246° West 218 251 2,900 -581 Descending Boston Center
Tue 07:33:32 PM 42.2067 -75.9444 265° West 186 214 2,100 -787 Descending Boston Center
Tue 07:35:00 PM 42.2000 -75.9667 270° West  Level FlightAware
Tue 07:42:00 PM 42.2084 -75.9796 270° West  Level Estimated
Tue 07:43:00 PM 42.2084 -75.9796 270° West  Level Estimated

Login

Don't have an account? Register now (free) for customized features, flight alerts, and more!